map of KLHB home
KLHB - Airport
Location
City:  Hearne, Texas, United States
Name:Hearne Municipal Airport
ICAO:KLHB
FAA LID:LHB

Details
Type:Airport (Airfield)
Use:Public/Civil
Latitude:3052'19"N (30.872083)
Longitude:9637'20"W (-96.622193)
Datum:WGS 1984
Elevation:284 ft (87 m)
Variation:3.11E (WMM2015v2 magnetic declination)
-0.10 annual change
Runways:1
Longest:4001 × 75 ft (1220 × 23 m), paved

Time
Time Zone:UTC-6 (DST-5)
Local Time:

Weather
METAR:KLHB 041415Z AUTO 14004KT 2 1/2SM BR SCT005 BKN011 OVC024 18/18 A2992 RMK AO2 T01830183

Related Locations
Nearby:
Farthest:RRG: 10978 mi / 17668 km
Plaine Corail [Sir Gatan Duval Airport (Plaine Corail Airport)], Rodrigues Island, MU

Find:

   beyond  
but within

Other Information
Maps:
NOTAMs:
Links:
Sources:

  
  • flag of United States
  • flag of Texas
  

Sectional Chart

Flight Planning
at skyvector.com

Satellite Image

Google Maps Satellite view

 

Copyright © 2004-2019 Karl L. Swartz. All rights reserved.
The Great Circle Mapper name and logo are trademarks of the Great Circle Mapper.
All other trademarks mentioned herein belong to their respective owners.
Please see credits for attibutions and further copyright information.

  Follow gcmap on Facebook Follow gcmap on Twitter GCmap on LinkedIn

hCard Microformat

Geo Microformat